createdAt,value
2022-11-17T00:02:19.911Z,98864.06
2022-11-17T00:04:47.527Z,98870.69
2022-11-17T00:07:15.228Z,98860.22
2022-11-17T00:09:42.980Z,98864.38
2022-11-17T00:12:32.666Z,98856.06
2022-11-17T00:15:00.658Z,98849.78
2022-11-17T00:17:31.066Z,98851.59
2022-11-17T00:20:18.469Z,98844.47
2022-11-17T00:22:46.055Z,98836.31
2022-11-17T00:25:13.938Z,98834.50
2022-11-17T00:27:41.478Z,98825.53
2022-11-17T00:30:31.057Z,98823.69
2022-11-17T00:33:22.059Z,98829.19
2022-11-17T00:35:53.784Z,98812.25
2022-11-17T00:38:21.567Z,98806.63
2022-11-17T00:40:49.525Z,98807.31
2022-11-17T00:43:17.120Z,98797.34
2022-11-17T00:45:44.801Z,98798.69
2022-11-17T00:48:14.154Z,98797.34
2022-11-17T00:50:41.897Z,98801.19
2022-11-17T00:53:09.533Z,98798.66
2022-11-17T00:55:37.097Z,98787.50
2022-11-17T00:58:06.056Z,98789.69
2022-11-17T01:00:37.550Z,98782.38
2022-11-17T01:03:06.039Z,98779.72
2022-11-17T01:05:36.547Z,98775.22
2022-11-17T01:08:04.486Z,98772.38
2022-11-17T01:10:32.105Z,98773.94
2022-11-17T01:12:59.755Z,98766.31
2022-11-17T01:15:27.622Z,98758.84
2022-11-17T01:17:55.604Z,98744.91
2022-11-17T01:20:23.253Z,98747.28
2022-11-17T01:22:56.149Z,98742.66
2022-11-17T01:25:23.825Z,98732.88
2022-11-17T01:27:52.044Z,98727.47
2022-11-17T01:30:19.815Z,98724.66
2022-11-17T01:32:47.356Z,98711.53
2022-11-17T01:35:15.054Z,98708.72
2022-11-17T01:37:43.561Z,98706.59
2022-11-17T01:40:14.066Z,98705.78
2022-11-17T01:42:43.107Z,98698.66
2022-11-17T01:45:21.958Z,98693.22
2022-11-17T01:47:52.224Z,98685.59
2022-11-17T01:50:28.926Z,98673.34
2022-11-17T01:52:59.902Z,98669.88
2022-11-17T01:55:35.370Z,98673.34
2022-11-17T01:58:08.280Z,98666.22
2022-11-17T02:00:36.150Z,98659.28
2022-11-17T02:03:06.995Z,98653.16
2022-11-17T02:05:41.426Z,98661.94
2022-11-17T02:08:10.998Z,98660.91
2022-11-17T02:10:40.937Z,98651.84
2022-11-17T02:13:09.262Z,98654.50
2022-11-17T02:15:36.818Z,98654.16
2022-11-17T02:18:05.617Z,98644.69
2022-11-17T02:20:44.582Z,98643.16
2022-11-17T02:23:57.306Z,98631.28
2022-11-17T02:26:49.613Z,98635.75
2022-11-17T02:29:25.225Z,98622.31
2022-11-17T02:31:59.257Z,98615.91
2022-11-17T02:34:38.051Z,98611.75
2022-11-17T02:37:12.396Z,98598.78
2022-11-17T02:39:48.090Z,98590.41
2022-11-17T02:42:45.750Z,98598.50
2022-11-17T02:45:19.408Z,98591.56
2022-11-17T02:47:50.049Z,98577.66
2022-11-17T02:59:29.386Z,98550.56
2022-11-17T03:02:34.281Z,98543.63
2022-11-17T03:05:12.058Z,98534.84
2022-11-17T03:07:55.771Z,98531.38
2022-11-17T03:10:29.721Z,98530.91
2022-11-17T03:13:11.784Z,98525.59
2022-11-17T03:15:43.488Z,98529.34
2022-11-17T03:18:22.048Z,98524.78
2022-11-17T03:21:00.280Z,98519.13
2022-11-17T03:23:35.427Z,98526.41
2022-11-17T03:26:07.570Z,98519.66
2022-11-17T03:28:35.215Z,98520.28
2022-11-17T03:31:07.080Z,98518.66
2022-11-17T03:33:41.435Z,98511.69
2022-11-17T03:36:14.078Z,98511.50
2022-11-17T03:38:49.464Z,98506.03
2022-11-17T03:41:21.282Z,98493.97
2022-11-17T03:43:52.059Z,98492.13
2022-11-17T03:46:21.717Z,98497.91
2022-11-17T03:48:58.036Z,98488.66
2022-11-17T03:52:16.068Z,98483.81
2022-11-17T03:54:47.104Z,98475.59
2022-11-17T03:57:22.204Z,98491.66
2022-11-17T03:59:55.801Z,98478.25
2022-11-17T04:02:24.808Z,98479.22
2022-11-17T04:05:09.017Z,98477.59
2022-11-17T04:07:40.048Z,98471.28
2022-11-17T04:10:10.294Z,98471.28
2022-11-17T04:12:56.131Z,98463.78
2022-11-17T04:15:41.375Z,98461.53
2022-11-17T04:18:08.960Z,98452.09
2022-11-17T04:20:38.109Z,98463.06
2022-11-17T04:23:08.024Z,98445.34
2022-11-17T04:25:53.943Z,98440.31
2022-11-17T04:28:46.713Z,98440.84
2022-11-17T04:31:18.076Z,98441.19
2022-11-17T04:34:11.236Z,98428.41
2022-11-17T04:36:46.080Z,98424.28
2022-11-17T04:39:14.959Z,98414.34
2022-11-17T04:41:54.053Z,98408.03
2022-11-17T04:44:25.149Z,98404.38
2022-11-17T04:46:54.058Z,98397.78
2022-11-17T04:49:22.981Z,98404.28
2022-11-17T04:52:18.083Z,98408.22
2022-11-17T04:54:49.589Z,98407.41
2022-11-17T04:57:17.566Z,98405.72
2022-11-17T04:59:45.075Z,98404.75
2022-11-17T05:02:14.737Z,98401.09
2022-11-17T05:04:57.445Z,98397.97
2022-11-17T05:07:27.847Z,98394.97
2022-11-17T05:09:56.143Z,98387.19
2022-11-17T05:12:43.069Z,98390.50
2022-11-17T05:15:11.465Z,98386.81
2022-11-17T05:17:40.066Z,98395.97
2022-11-17T05:20:09.672Z,98397.44
2022-11-17T05:22:56.341Z,98386.34
2022-11-17T05:25:23.908Z,98381.00
2022-11-17T05:27:52.068Z,98381.16
2022-11-17T05:30:20.556Z,98384.81
2022-11-17T05:32:48.541Z,98385.63
2022-11-17T05:35:16.273Z,98385.00
2022-11-17T05:37:45.217Z,98384.81
2022-11-17T05:40:13.151Z,98387.66
2022-11-17T05:42:41.613Z,98393.78
2022-11-17T05:45:10.258Z,98389.28
2022-11-17T05:47:44.044Z,98368.28
2022-11-17T05:50:12.127Z,98367.25
2022-11-17T05:52:40.075Z,98367.25
2022-11-17T05:58:06.464Z,98367.06
2022-11-17T06:00:59.386Z,98355.66
2022-11-17T06:03:34.101Z,98360.13
2022-11-17T06:06:02.290Z,98362.16
2022-11-17T06:08:31.982Z,98357.88
2022-11-17T06:11:00.902Z,98363.16
2022-11-17T06:13:29.163Z,98371.13
2022-11-17T06:15:59.121Z,98369.09
2022-11-17T06:18:31.555Z,98357.41
2022-11-17T06:20:59.371Z,98364.34
2022-11-17T06:23:29.649Z,98359.84
2022-11-17T06:25:59.065Z,98357.59
2022-11-17T06:28:31.935Z,98356.56
2022-11-17T06:31:00.917Z,98351.56
2022-11-17T06:33:31.091Z,98356.84
2022-11-17T06:36:02.063Z,98342.59
2022-11-17T06:38:31.365Z,98341.97
2022-11-17T06:41:06.194Z,98342.31
2022-11-17T06:43:38.183Z,98337.66
2022-11-17T06:46:06.562Z,98337.28
2022-11-17T06:48:35.850Z,98342.25
2022-11-17T06:51:09.073Z,98333.44
2022-11-17T06:53:38.194Z,98333.28
2022-11-17T06:56:08.979Z,98341.38
2022-11-17T06:58:41.303Z,98339.84
2022-11-17T07:01:12.092Z,98339.00
2022-11-17T07:03:43.084Z,98332.69
2022-11-17T07:06:14.038Z,98340.50
2022-11-17T07:08:41.650Z,98343.78
2022-11-17T07:11:13.610Z,98345.41
2022-11-17T07:13:42.481Z,98351.19
2022-11-17T07:16:12.021Z,98346.88
2022-11-17T07:18:42.476Z,98349.16
2022-11-17T07:21:13.516Z,98339.75
2022-11-17T07:23:48.103Z,98336.56
2022-11-17T07:26:16.468Z,98336.19
2022-11-17T07:28:45.391Z,98333.72
2022-11-17T07:31:13.069Z,98337.38
2022-11-17T07:33:40.610Z,98331.06
2022-11-17T07:36:10.381Z,98331.88
2022-11-17T07:38:40.666Z,98325.56
2022-11-17T07:41:09.692Z,98325.22
2022-11-17T07:43:37.485Z,98325.84
2022-11-17T07:46:07.445Z,98320.53
2022-11-17T07:48:37.656Z,98331.41
2022-11-17T07:51:06.454Z,98319.16
2022-11-17T07:53:36.409Z,98321.81
2022-11-17T07:56:05.173Z,98325.09
2022-11-17T07:58:33.228Z,98331.03
2022-11-17T08:01:05.190Z,98331.03
2022-11-17T08:03:35.229Z,98340.47
2022-11-17T08:06:05.088Z,98341.72
2022-11-17T08:08:33.078Z,98339.72
2022-11-17T08:11:03.032Z,98343.00
2022-11-17T08:13:31.662Z,98341.34
2022-11-17T08:16:00.099Z,98346.09
2022-11-17T08:18:32.193Z,98348.56
2022-11-17T08:21:27.139Z,98350.00
2022-11-17T08:23:56.101Z,98352.50
2022-11-17T08:26:25.252Z,98348.84
2022-11-17T08:28:58.068Z,98344.97
2022-11-17T08:31:26.721Z,98348.09
2022-11-17T08:33:54.279Z,98358.50
2022-11-17T08:36:22.071Z,98360.97
2022-11-17T08:38:51.021Z,98364.91
2022-11-17T08:41:21.635Z,98367.00
2022-11-17T08:43:50.061Z,98364.78
2022-11-17T08:46:17.647Z,98375.03
2022-11-17T08:48:45.221Z,98373.81
2022-11-17T08:51:14.771Z,98374.63
2022-11-17T08:53:42.839Z,98370.81
2022-11-17T08:56:13.749Z,98377.75
2022-11-17T08:58:43.106Z,98376.19
2022-11-17T09:01:12.216Z,98381.28
2022-11-17T09:03:44.027Z,98377.88
2022-11-17T09:06:15.013Z,98386.66
2022-11-17T09:08:46.090Z,98403.63
2022-11-17T09:11:17.119Z,98404.63
2022-11-17T09:13:45.542Z,98400.75
2022-11-17T09:16:14.051Z,98400.41
2022-11-17T09:18:42.340Z,98408.16
2022-11-17T09:24:04.794Z,98413.31
2022-11-17T09:26:34.217Z,98417.63
2022-11-17T09:29:04.588Z,98419.25
2022-11-17T09:31:33.181Z,98424.38
2022-11-17T09:34:05.278Z,98426.66
2022-11-17T09:36:35.152Z,98432.59
2022-11-17T09:39:02.829Z,98435.72
2022-11-17T09:41:36.715Z,98444.50
2022-11-17T09:44:17.097Z,98452.88
2022-11-17T09:46:55.575Z,98446.41
2022-11-17T09:49:36.573Z,98447.03
2022-11-17T09:52:18.467Z,98445.00
2022-11-17T09:54:51.926Z,98447.66
2022-11-17T09:57:26.278Z,98445.81
2022-11-17T10:00:03.487Z,98444.63
2022-11-17T10:02:34.310Z,98444.22
2022-11-17T10:05:02.177Z,98444.88
2022-11-17T10:07:34.312Z,98449.19
2022-11-17T10:10:04.494Z,98445.31
2022-11-17T10:12:45.501Z,98448.22
2022-11-17T10:15:23.043Z,98449.50
2022-11-17T10:17:51.492Z,98453.81
2022-11-17T10:20:20.082Z,98449.94
2022-11-17T10:22:49.329Z,98450.41
2022-11-17T10:25:38.582Z,98455.53
2022-11-17T10:28:10.313Z,98455.34
2022-11-17T10:30:39.501Z,98447.81
2022-11-17T10:33:07.129Z,98452.09
2022-11-17T10:35:37.062Z,98448.00
2022-11-17T10:38:07.165Z,98453.94
2022-11-17T10:40:48.002Z,98452.56
2022-11-17T10:43:26.792Z,98459.50
2022-11-17T10:45:57.541Z,98460.78
2022-11-17T10:48:28.677Z,98455.25
2022-11-17T10:50:59.064Z,98463.94
2022-11-17T10:53:35.891Z,98464.38
2022-11-17T10:56:14.073Z,98460.31
2022-11-17T10:59:00.652Z,98457.25
2022-11-17T11:01:33.348Z,98461.63
2022-11-17T11:04:05.085Z,98461.88
2022-11-17T11:06:35.248Z,98464.19
2022-11-17T11:09:11.428Z,98462.34
2022-11-17T11:11:44.889Z,98470.75
2022-11-17T11:14:32.286Z,98471.19
2022-11-17T11:17:00.605Z,98469.78
2022-11-17T11:19:28.160Z,98477.00
2022-11-17T11:22:27.398Z,98476.41
2022-11-17T11:25:05.062Z,98477.47
2022-11-17T11:27:57.056Z,98478.72
2022-11-17T11:30:29.165Z,98482.00
2022-11-17T11:33:10.165Z,98480.78
2022-11-17T11:35:49.718Z,98493.09
2022-11-17T11:38:31.639Z,98486.34
2022-11-17T11:41:16.169Z,98489.66
2022-11-17T11:43:55.705Z,98488.81
2022-11-17T11:46:33.155Z,98490.47
2022-11-17T11:49:09.228Z,98491.28
2022-11-17T11:51:39.954Z,98492.09
2022-11-17T11:54:13.340Z,98491.28
2022-11-17T11:56:45.894Z,98487.59
2022-11-17T11:59:19.375Z,98489.25
2022-11-17T12:01:57.210Z,98500.72
2022-11-17T12:04:37.814Z,98497.84
2022-11-17T12:07:16.195Z,98498.88
2022-11-17T12:10:02.548Z,98497.66
2022-11-17T12:12:33.081Z,98506.66
2022-11-17T12:15:10.796Z,98502.59
2022-11-17T12:17:58.552Z,98507.53
2022-11-17T12:20:49.448Z,98504.25
2022-11-17T12:23:27.056Z,98511.66
2022-11-17T12:25:57.915Z,98511.44
2022-11-17T12:28:32.094Z,98509.81
2022-11-17T12:31:06.728Z,98512.31
2022-11-17T12:34:18.565Z,98516.41
2022-11-17T12:37:21.914Z,98521.53
2022-11-17T12:40:06.242Z,98522.34
2022-11-17T12:42:35.165Z,98527.88
2022-11-17T12:45:07.265Z,98522.16
2022-11-17T12:47:36.160Z,98523.81
2022-11-17T12:50:49.851Z,98527.09
2022-11-17T12:53:40.086Z,98531.00
2022-11-17T12:56:24.274Z,98527.75
2022-11-17T12:59:05.417Z,98540.03
2022-11-17T13:01:42.298Z,98542.72
2022-11-17T13:04:15.217Z,98540.25
2022-11-17T13:07:03.244Z,98545.59
2022-11-17T13:09:36.351Z,98547.59
2022-11-17T13:12:06.944Z,98551.91
2022-11-17T13:14:36.586Z,98553.56
2022-11-17T13:17:04.691Z,98553.94
2022-11-17T13:19:37.179Z,98558.47
2022-11-17T13:22:14.909Z,98557.22
2022-11-17T13:24:44.198Z,98558.25
2022-11-17T13:27:21.404Z,98557.84
2022-11-17T13:29:49.687Z,98559.66
2022-11-17T13:32:22.084Z,98559.66
2022-11-17T13:34:52.387Z,98562.72
2022-11-17T13:37:27.158Z,98562.53
2022-11-17T13:39:56.922Z,98560.06
2022-11-17T13:42:27.144Z,98565.41
2022-11-17T13:44:57.092Z,98568.25
2022-11-17T13:47:41.100Z,98562.94
2022-11-17T13:50:39.465Z,98563.50
2022-11-17T13:53:24.645Z,98569.88
2022-11-17T13:55:53.081Z,98575.38
2022-11-17T13:58:35.013Z,98582.38
2022-11-17T14:01:02.717Z,98573.56
2022-11-17T14:03:36.568Z,98586.00
2022-11-17T14:06:06.737Z,98574.94
2022-11-17T14:08:36.680Z,98587.44
2022-11-17T14:11:15.106Z,98582.31
2022-11-17T14:13:50.074Z,98582.50
2022-11-17T14:16:24.818Z,98592.53
2022-11-17T14:18:59.106Z,98586.38
2022-11-17T14:21:29.060Z,98589.66
2022-11-17T14:24:11.177Z,98593.94
2022-11-17T14:26:44.368Z,98595.16
2022-11-17T14:29:14.077Z,98593.69
2022-11-17T14:31:44.201Z,98594.69
2022-11-17T14:34:16.699Z,98592.44
2022-11-17T14:36:48.761Z,98597.13
2022-11-17T14:39:19.311Z,98598.34
2022-11-17T14:41:49.678Z,98604.88
2022-11-17T14:44:17.668Z,98610.38
2022-11-17T14:46:46.079Z,98610.38
2022-11-17T14:49:13.965Z,98614.88
2022-11-17T14:51:44.088Z,98606.47
2022-11-17T14:54:11.601Z,98607.47
2022-11-17T14:56:43.166Z,98611.34
2022-11-17T14:59:11.456Z,98614.84
2022-11-17T15:01:39.498Z,98609.06
2022-11-17T15:04:34.493Z,98612.75
2022-11-17T15:06:55.445Z,98612.31
2022-11-17T15:09:23.151Z,98626.81
2022-11-17T15:11:52.517Z,98631.50
2022-11-17T15:14:20.345Z,98630.03
2022-11-17T15:16:48.024Z,98624.91
2022-11-17T15:19:15.539Z,98626.13
2022-11-17T15:21:43.205Z,98625.47
2022-11-17T15:24:12.086Z,98634.69
2022-11-17T15:26:39.613Z,98628.75
2022-11-17T15:29:33.942Z,98640.38
2022-11-17T15:32:03.150Z,98639.94
2022-11-17T15:34:30.758Z,98645.47
2022-11-17T15:36:59.405Z,98647.47
2022-11-17T15:39:26.976Z,98643.38
2022-11-17T15:41:54.892Z,98648.06
2022-11-17T15:44:23.084Z,98648.06
2022-11-17T15:46:52.029Z,98645.75
2022-11-17T15:49:21.114Z,98651.06
2022-11-17T15:51:48.916Z,98653.13
2022-11-17T15:54:20.746Z,98653.28
2022-11-17T15:56:50.118Z,98656.13
2022-11-17T15:59:17.995Z,98660.81
2022-11-17T16:01:46.125Z,98659.19
2022-11-17T16:04:16.276Z,98662.00
2022-11-17T16:06:45.445Z,98668.34
2022-11-17T16:09:13.522Z,98665.06
2022-11-17T16:11:42.716Z,98667.09
2022-11-17T16:14:11.628Z,98671.75
2022-11-17T16:16:40.284Z,98668.47
2022-11-17T16:19:10.564Z,98670.47
2022-11-17T16:21:39.591Z,98678.63
2022-11-17T16:24:11.947Z,98675.16
2022-11-17T16:26:39.626Z,98681.69
2022-11-17T16:29:08.722Z,98686.34
2022-11-17T16:31:39.123Z,98691.03
2022-11-17T16:34:08.802Z,98690.22
2022-11-17T16:36:41.348Z,98681.63
2022-11-17T16:39:11.606Z,98688.09
2022-11-17T16:41:46.225Z,98690.97
2022-11-17T16:44:18.236Z,98689.31
2022-11-17T16:46:48.520Z,98685.19
2022-11-17T16:49:18.373Z,98675.56
2022-11-17T16:51:50.117Z,98678.22
2022-11-17T16:54:18.699Z,98682.72
2022-11-17T16:56:46.407Z,98684.53
2022-11-17T16:59:15.607Z,98680.25
2022-11-17T17:01:43.505Z,98681.88
2022-11-17T17:04:12.078Z,98682.09
2022-11-17T17:06:41.251Z,98687.56
2022-11-17T17:09:12.232Z,98691.22
2022-11-17T17:11:40.408Z,98689.59
2022-11-17T17:14:12.490Z,98691.63
2022-11-17T17:16:41.393Z,98698.56
2022-11-17T17:19:11.674Z,98704.09
2022-11-17T17:21:40.705Z,98705.91
2022-11-17T17:24:11.163Z,98698.94
2022-11-17T17:26:40.048Z,98706.91
2022-11-17T17:29:12.476Z,98698.31
2022-11-17T17:31:41.553Z,98700.97
2022-11-17T17:34:12.463Z,98711.75
2022-11-17T17:36:40.288Z,98709.28
2022-11-17T17:39:08.982Z,98718.22
2022-11-17T17:41:41.738Z,98716.78
2022-11-17T17:44:14.136Z,98714.31
2022-11-17T17:46:42.707Z,98715.50
2022-11-17T17:49:12.122Z,98723.66
2022-11-17T17:51:43.365Z,98734.28
2022-11-17T17:54:16.136Z,98734.47
2022-11-17T17:56:46.174Z,98740.13
2022-11-17T17:59:14.567Z,98745.44
2022-11-17T18:01:46.224Z,98758.91
2022-11-17T18:04:16.493Z,98753.78
2022-11-17T18:06:47.692Z,98760.94
2022-11-17T18:09:18.695Z,98761.75
2022-11-17T18:11:49.881Z,98761.91
2022-11-17T18:14:20.320Z,98764.78
2022-11-17T18:16:48.366Z,98759.47
2022-11-17T18:19:17.157Z,98765.59
2022-11-17T18:21:45.199Z,98763.94
2022-11-17T18:24:13.855Z,98755.16
2022-11-17T18:26:42.103Z,98758.81
2022-11-17T18:29:14.891Z,98753.31
2022-11-17T18:31:43.199Z,98760.47
2022-11-17T18:34:16.509Z,98757.00
2022-11-17T18:36:44.158Z,98753.31
2022-11-17T18:39:12.666Z,98760.47
2022-11-17T18:41:40.422Z,98767.81
2022-11-17T18:44:08.161Z,98762.50
2022-11-17T18:46:37.113Z,98774.94
2022-11-17T18:49:05.252Z,98777.75
2022-11-17T18:51:34.183Z,98782.25
2022-11-17T18:54:03.049Z,98784.09
2022-11-17T18:56:33.373Z,98784.28
2022-11-17T18:59:01.305Z,98783.44
2022-11-17T19:01:31.479Z,98783.63
2022-11-17T19:04:01.360Z,98783.78
2022-11-17T19:06:29.640Z,98788.47
2022-11-17T19:08:59.540Z,98787.00
2022-11-17T19:11:28.553Z,98795.31
2022-11-17T19:13:56.226Z,98794.84
2022-11-17T19:16:26.131Z,98788.25
2022-11-17T19:19:00.152Z,98799.41
2022-11-17T19:21:31.000Z,98801.78
2022-11-17T19:24:01.082Z,98799.63
2022-11-17T19:26:29.979Z,98808.16
2022-11-17T19:28:59.022Z,98809.50
2022-11-17T19:31:28.125Z,98805.53
2022-11-17T19:33:58.181Z,98807.91
2022-11-17T19:36:27.644Z,98811.25
2022-11-17T19:38:58.138Z,98811.97
2022-11-17T19:41:31.932Z,98811.66
2022-11-17T19:44:01.250Z,98817.66
2022-11-17T19:46:30.383Z,98812.22
2022-11-17T19:48:58.846Z,98825.19
2022-11-17T19:51:29.208Z,98823.41
2022-11-17T19:53:59.721Z,98827.56
2022-11-17T19:56:28.094Z,98834.56
2022-11-17T19:58:56.457Z,98835.25
2022-11-17T20:01:25.877Z,98837.78
2022-11-17T20:03:54.359Z,98840.09
2022-11-17T20:06:27.170Z,98839.13
2022-11-17T20:08:55.126Z,98844.94
2022-11-17T20:11:25.788Z,98843.97
2022-11-17T20:13:54.328Z,98850.78
2022-11-17T20:16:24.459Z,98850.63
2022-11-17T20:18:54.186Z,98856.38
2022-11-17T20:21:23.098Z,98859.72
2022-11-17T20:23:51.107Z,98862.69
2022-11-17T20:26:20.608Z,98853.59
2022-11-17T20:28:50.619Z,98863.53
2022-11-17T20:31:20.195Z,98862.19
2022-11-17T20:33:49.623Z,98866.84
2022-11-17T20:36:19.478Z,98868.97
2022-11-17T20:38:51.349Z,98875.44
2022-11-17T20:41:20.819Z,98874.94
2022-11-17T20:43:51.119Z,98878.75
2022-11-17T20:46:19.696Z,98885.22
2022-11-17T20:48:48.157Z,98880.91
2022-11-17T20:51:17.508Z,98882.72
2022-11-17T20:53:45.527Z,98883.72
2022-11-17T20:56:16.878Z,98895.13
2022-11-17T20:58:44.881Z,98895.31
2022-11-17T21:01:21.041Z,98900.59
2022-11-17T21:03:49.214Z,98898.28
2022-11-17T21:06:17.295Z,98905.38
2022-11-17T21:11:55.166Z,98910.38
2022-11-17T21:14:24.567Z,98914.00
2022-11-17T21:16:54.518Z,98915.97
2022-11-17T21:19:22.663Z,98924.75
2022-11-17T21:21:51.174Z,98916.16
2022-11-17T21:24:18.842Z,98918.63
2022-11-17T21:26:46.420Z,98926.56
2022-11-17T21:29:14.658Z,98924.56
2022-11-17T21:31:42.363Z,98928.91
2022-11-17T21:34:17.053Z,98930.56
2022-11-17T21:36:46.632Z,98945.63
2022-11-17T21:39:18.522Z,98939.31
2022-11-17T21:41:46.598Z,98937.50
2022-11-17T21:44:14.980Z,98940.16
2022-11-17T21:46:42.601Z,98943.63
2022-11-17T21:49:10.758Z,98935.69
2022-11-17T21:51:39.838Z,98940.97
2022-11-17T21:54:08.938Z,98951.38
2022-11-17T21:56:37.084Z,98946.91
2022-11-17T21:59:07.115Z,98954.88
2022-11-17T22:01:35.268Z,98968.28
2022-11-17T22:04:03.423Z,98962.97
2022-11-17T22:06:32.318Z,98962.81
2022-11-17T22:09:02.103Z,98959.69
2022-11-17T22:11:37.984Z,98966.78
2022-11-17T22:14:10.129Z,98966.09
2022-11-17T22:16:39.548Z,98974.22
2022-11-17T22:19:08.136Z,98974.38
2022-11-17T22:21:37.161Z,98977.16
2022-11-17T22:24:11.113Z,98982.47
2022-11-17T22:26:40.901Z,98974.69
2022-11-17T22:29:12.095Z,98981.97
2022-11-17T22:31:39.763Z,98985.63
2022-11-17T22:34:11.122Z,98996.34
2022-11-17T22:36:38.737Z,98989.41
2022-11-17T22:39:09.200Z,98985.28
2022-11-17T22:41:37.078Z,98986.41
2022-11-17T22:44:06.092Z,98991.88
2022-11-17T22:46:36.157Z,98995.66
2022-11-17T22:49:04.141Z,98991.69
2022-11-17T22:51:51.126Z,98991.03
2022-11-17T22:54:20.930Z,98995.78
2022-11-17T22:56:49.168Z,98989.97
2022-11-17T22:59:17.421Z,98996.44
2022-11-17T23:01:46.113Z,99001.19
2022-11-17T23:04:16.225Z,99004.34
2022-11-17T23:06:44.292Z,98999.50
2022-11-17T23:09:13.472Z,99008.75
2022-11-17T23:11:44.601Z,99009.22
2022-11-17T23:14:15.209Z,99012.34
2022-11-17T23:16:43.823Z,99028.50
2022-11-17T23:19:15.600Z,99021.03
2022-11-17T23:21:43.491Z,99026.97
2022-11-17T23:24:14.551Z,99029.22
2022-11-17T23:26:45.006Z,99019.28
2022-11-17T23:29:12.526Z,99032.16
2022-11-17T23:31:41.125Z,99035.25
2022-11-17T23:34:09.751Z,99034.88
2022-11-17T23:36:37.378Z,99041.47
2022-11-17T23:39:05.723Z,99042.91
2022-11-17T23:41:35.227Z,99046.03
2022-11-17T23:44:04.771Z,99048.28
2022-11-17T23:46:32.343Z,99042.63
2022-11-17T23:49:00.114Z,99047.53
2022-11-17T23:51:29.703Z,99050.78
2022-11-17T23:53:59.380Z,99045.13
2022-11-17T23:56:28.124Z,99048.06
2022-11-17T23:58:55.681Z,99052.28
